Station Charts

 

Station Historical Data
Daily Summary for February 15, 2018 Units:  English    Metric   Both
« Previous Day
Next Day »
Daily Weekly Monthly Yearly Custom
  High: Low: Average:
Temperature: TemperatureF °F 35.1 °F 38.9 °F
Dew Point: DewpointF °F 33.1 °F 36 °F
Humidity: Humidity % 79 % 89 %
Wind Speed: WindSpeedMPH mph 0.0 mph 0.7 mph
Wind Gust: WindSpeedGustMPH mph - -
Wind:- - SSE
Pressure: PressureIn in 30.27 in -
Precipitation: 0.05 in    
Historical Graphs
 
 
Tabular Data for February 15, 2018
Time Temperature Dew Point Pressure Wind Wind Speed Wind Gust Humidity Rainfall Rate (Hourly)
TemperatureF °F DewpointF °F PressureIn in Calm     Humidity % HourlyPrecipIn in
00:04 36.9 °F 35.0 °F 30.27 in Calm     93 % 0.00 in
00:09 36.9 °F 35.0 °F 30.27 in Calm     93 % 0.00 in
00:14 36.9 °F 35.0 °F 30.27 in Calm     93 % 0.00 in
00:19 36.7 °F 34.8 °F 30.28 in Calm     93 % 0.00 in
00:24 36.7 °F 34.8 °F 30.28 in Calm     93 % 0.00 in
00:29 36.7 °F 34.8 °F 30.28 in Calm     93 % 0.00 in
00:34 36.7 °F 34.8 °F 30.29 in Calm     93 % 0.00 in
00:39 36.7 °F 34.8 °F 30.29 in Calm     93 % 0.00 in
00:44 36.7 °F 34.8 °F 30.29 in Calm     93 % 0.00 in
00:49 36.5 °F 34.7 °F 30.29 in Calm     93 % 0.00 in
00:54 36.5 °F 34.7 °F 30.29 in Calm     93 % 0.00 in
00:59 36.5 °F 34.7 °F 30.29 in Calm     93 % 0.00 in
01:04 36.3 °F 34.5 °F 30.29 in Calm     93 % 0.00 in
01:10 36.5 °F 34.7 °F 30.29 in Calm     93 % 0.00 in
01:15 36.5 °F 34.7 °F 30.29 in Calm     93 % 0.00 in
01:20 36.7 °F 34.8 °F 30.30 in Calm     93 % 0.00 in
01:25 36.7 °F 34.8 °F 30.30 in Calm     93 % 0.00 in
01:30 36.7 °F 34.8 °F 30.30 in Calm     93 % 0.00 in
01:35 36.7 °F 34.8 °F 30.31 in Calm     93 % 0.00 in
01:40 36.7 °F 34.8 °F 30.31 in Calm     93 % 0.00 in
01:45 36.7 °F 34.8 °F 30.31 in Calm     93 % 0.00 in
01:50 36.9 °F 35.0 °F 30.31 in Calm     93 % 0.00 in
01:55 36.9 °F 35.0 °F 30.31 in Calm     93 % 0.00 in
02:00 36.9 °F 34.8 °F 30.31 in Calm     92 % 0.00 in
02:05 37.0 °F 34.9 °F 30.31 in Calm     92 % 0.00 in
02:10 37.0 °F 34.9 °F 30.31 in Calm     92 % 0.00 in
02:15 37.0 °F 34.9 °F 30.31 in Calm     92 % 0.00 in
02:21 37.0 °F 34.9 °F 30.31 in Calm     92 % 0.00 in
02:26 36.9 °F 34.5 °F 30.31 in Calm     91 % 0.00 in
02:31 36.7 °F 34.3 °F 30.31 in Calm     91 % 0.00 in
02:36 36.5 °F 34.1 °F 30.31 in Calm     91 % 0.00 in
02:41 36.3 °F 34.2 °F 30.31 in Calm     92 % 0.00 in
02:46 36.1 °F 34.0 °F 30.31 in Calm     92 % 0.00 in
02:51 36.1 °F 34.0 °F 30.32 in Calm     92 % 0.00 in
02:56 36.0 °F 33.9 °F 30.32 in Calm     92 % 0.00 in
03:01 36.0 °F 33.6 °F 30.32 in Calm     91 % 0.00 in
03:06 35.6 °F 33.5 °F 30.32 in Calm     92 % 0.00 in
03:11 35.4 °F 33.3 °F 30.32 in Calm     92 % 0.00 in
03:16 35.2 °F 33.1 °F 30.32 in Calm     92 % 0.00 in
03:21 35.2 °F 33.1 °F 30.32 in Calm     92 % 0.00 in
03:26 35.2 °F 33.4 °F 30.32 in Calm     93 % 0.00 in
03:32 35.1 °F 33.2 °F 30.32 in Calm     93 % 0.00 in
03:37 35.2 °F 33.4 °F 30.32 in Calm     93 % 0.00 in
03:42 35.2 °F 33.4 °F 30.32 in Calm     93 % 0.00 in
03:47 35.2 °F 33.4 °F 30.32 in Calm     93 % 0.00 in
03:52 35.2 °F 33.4 °F 30.32 in Calm     93 % 0.00 in
03:57 35.4 °F 33.6 °F 30.32 in Calm     93 % 0.00 in
04:02 35.4 °F 33.6 °F 30.33 in Calm     93 % 0.00 in
04:07 35.4 °F 33.6 °F 30.33 in Calm     93 % 0.00 in
04:12 35.4 °F 33.6 °F 30.33 in Calm     93 % 0.00 in
04:17 35.4 °F 33.6 °F 30.33 in Calm     93 % 0.00 in
04:22 35.4 °F 33.6 °F 30.33 in Calm     93 % 0.00 in
04:27 35.4 °F 33.6 °F 30.33 in Calm     93 % 0.00 in
04:32 35.6 °F 33.8 °F 30.33 in Calm     93 % 0.00 in
04:37 35.6 °F 33.8 °F 30.33 in Calm     93 % 0.00 in
04:42 35.6 °F 33.8 °F 30.33 in Calm     93 % 0.00 in
04:47 35.6 °F 33.8 °F 30.34 in Calm     93 % 0.00 in
04:52 35.6 °F 33.8 °F 30.34 in Calm     93 % 0.00 in
04:58 35.6 °F 33.8 °F 30.34 in Calm     93 % 0.00 in
05:03 35.8 °F 34.0 °F 30.34 in Calm     93 % 0.00 in
05:08 35.8 °F 34.0 °F 30.34 in Calm     93 % 0.00 in
05:13 35.8 °F 34.0 °F 30.34 in Calm     93 % 0.00 in
05:18 35.8 °F 34.0 °F 30.35 in Calm     93 % 0.00 in
05:23 35.8 °F 34.0 °F 30.35 in Calm     93 % 0.00 in
05:28 35.8 °F 34.0 °F 30.35 in Calm     93 % 0.00 in
05:33 35.8 °F 34.0 °F 30.35 in Calm     93 % 0.00 in
05:38 36.0 °F 34.1 °F 30.35 in Calm     93 % 0.00 in
05:43 36.0 °F 34.1 °F 30.35 in Calm     93 % 0.00 in
05:48 36.0 °F 34.1 °F 30.36 in Calm     93 % 0.00 in
05:53 36.0 °F 34.1 °F 30.36 in Calm     93 % 0.00 in
05:58 36.1 °F 34.3 °F 30.36 in Calm     93 % 0.00 in
06:03 36.1 °F 34.3 °F 30.36 in Calm     93 % 0.00 in
06:08 36.1 °F 34.3 °F 30.36 in Calm     93 % 0.00 in
06:14 36.1 °F 34.3 °F 30.36 in Calm     93 % 0.00 in
06:19 36.1 °F 34.3 °F 30.37 in Calm     93 % 0.00 in
06:24 36.1 °F 34.3 °F 30.37 in Calm     93 % 0.00 in
06:29 36.1 °F 34.3 °F 30.37 in Calm     93 % 0.00 in
06:34 36.1 °F 34.3 °F 30.37 in Calm     93 % 0.00 in
06:39 36.1 °F 34.3 °F 30.37 in Calm     93 % 0.00 in
06:44 36.1 °F 34.3 °F 30.37 in Calm     93 % 0.00 in
06:49 36.1 °F 34.3 °F 30.38 in Calm     93 % 0.00 in
06:54 36.1 °F 34.3 °F 30.38 in Calm     93 % 0.00 in
06:59 36.1 °F 34.3 °F 30.38 in Calm     93 % 0.00 in
07:04 36.1 °F 34.3 °F 30.38 in Calm     93 % 0.00 in
07:09 36.3 °F 34.5 °F 30.38 in Calm     93 % 0.00 in
07:14 36.3 °F 34.2 °F 30.38 in Calm     92 % 0.00 in
07:19 36.3 °F 34.2 °F 30.39 in Calm     92 % 0.00 in
07:25 36.3 °F 34.2 °F 30.39 in Calm     92 % 0.00 in
07:30 36.5 °F 34.1 °F 30.39 in Calm     91 % 0.00 in
07:35 36.7 °F 34.6 °F 30.40 in Calm     92 % 0.00 in
07:40 36.7 °F 34.6 °F 30.40 in Calm     92 % 0.00 in
07:45 36.7 °F 34.6 °F 30.40 in Calm     92 % 0.00 in
07:50 36.7 °F 34.3 °F 30.40 in Calm     91 % 0.00 in
07:55 36.7 °F 34.0 °F 30.40 in Calm     90 % 0.00 in
08:00 36.7 °F 34.0 °F 30.40 in Calm     90 % 0.00 in
08:05 36.7 °F 34.0 °F 30.41 in Calm     90 % 0.00 in
08:10 36.7 °F 34.0 °F 30.41 in Calm     90 % 0.00 in
08:15 36.9 °F 34.2 °F 30.41 in Calm     90 % 0.00 in
08:20 37.0 °F 34.4 °F 30.41 in Calm     90 % 0.00 in
08:25 37.0 °F 34.1 °F 30.41 in SE 1.8 mph   89 % 0.00 in
08:30 37.2 °F 34.0 °F 30.41 in South 2.3 mph   88 % 0.00 in
08:36 37.2 °F 34.0 °F 30.42 in SSE 2.3 mph   88 % 0.00 in
08:41 37.2 °F 34.3 °F 30.42 in SE 1.2 mph   89 % 0.00 in
08:46 37.4 °F 34.5 °F 30.42 in SE 1.2 mph   89 % 0.00 in
08:51 37.6 °F 34.6 °F 30.42 in Calm     89 % 0.00 in
08:56 37.8 °F 34.8 °F 30.42 in Calm     89 % 0.00 in
09:01 37.8 °F 35.4 °F 30.42 in Calm     91 % 0.00 in
09:06 37.9 °F 35.3 °F 30.43 in Calm     90 % 0.00 in
09:11 38.1 °F 35.4 °F 30.43 in SSE 1.4 mph   90 % 0.00 in
09:16 38.3 °F 35.1 °F 30.43 in SE 3.5 mph   88 % 0.00 in
09:21 38.5 °F 35.2 °F 30.42 in ESE 3.5 mph   88 % 0.00 in
09:26 38.7 °F 35.4 °F 30.42 in SSE 2.3 mph   88 % 0.00 in
09:31 38.7 °F 35.4 °F 30.42 in Calm     88 % 0.00 in
09:37 38.8 °F 35.3 °F 30.43 in Calm     87 % 0.00 in
09:42 39.0 °F 35.8 °F 30.43 in Calm     88 % 0.00 in
09:47 39.2 °F 35.4 °F 30.43 in SE 2.9 mph   86 % 0.00 in
09:52 39.4 °F 35.8 °F 30.43 in Calm     87 % 0.00 in
09:57 39.6 °F 36.0 °F 30.43 in SSE 2.3 mph   87 % 0.00 in
10:02 39.6 °F 36.0 °F 30.43 in South 2.3 mph   87 % 0.00 in
10:07 39.7 °F 35.9 °F 30.43 in SE 2.4 mph   86 % 0.00 in
10:12 39.9 °F 36.4 °F 30.43 in ESE 1.8 mph   87 % 0.00 in
10:17 39.9 °F 36.1 °F 30.43 in South 4.0 mph   86 % 0.00 in
10:22 40.1 °F 36.5 °F 30.43 in SE 2.3 mph   87 % 0.00 in
10:27 40.3 °F 37.0 °F 30.43 in Calm     88 % 0.00 in
10:32 40.3 °F 36.7 °F 30.43 in SE 2.3 mph   87 % 0.00 in
10:37 40.5 °F 37.2 °F 30.43 in Calm     88 % 0.00 in
10:42 40.5 °F 36.9 °F 30.43 in NW 2.0 mph   87 % 0.00 in
10:47 40.5 °F 36.6 °F 30.44 in ESE 2.9 mph   86 % 0.00 in
10:52 40.5 °F 36.6 °F 30.44 in ESE 2.9 mph   86 % 0.00 in
10:58 40.6 °F 37.1 °F 30.44 in Calm   1.4 mph 87 % 0.00 in
11:03 40.8 °F 37.5 °F 30.44 in Calm   1.4 mph 88 % 0.00 in
11:08 41.0 °F 37.7 °F 30.44 in Calm     88 % 0.00 in
11:13 41.2 °F 37.3 °F 30.44 in ESE 1.2 mph   86 % 0.00 in
11:18 41.0 °F 37.1 °F 30.44 in Calm     86 % 0.00 in
11:23 40.8 °F 37.5 °F 30.44 in Calm     88 % 0.00 in
11:28 40.8 °F 37.8 °F 30.44 in Calm     89 % 0.00 in
11:33 41.2 °F 38.2 °F 30.44 in South 1.4 mph   89 % 0.00 in
11:38 41.7 °F 38.4 °F 30.44 in SE 2.3 mph   88 % 0.00 in
11:43 42.3 °F 38.7 °F 30.44 in SSE 1.2 mph   87 % 0.00 in
11:48 42.6 °F 38.7 °F 30.44 in Calm     86 % 0.00 in
11:53 43.2 °F 38.3 °F 30.44 in SW 2.3 mph   83 % 0.00 in
11:58 43.2 °F 38.7 °F 30.44 in SW 2.3 mph   84 % 0.00 in
12:03 43.2 °F 38.0 °F 30.44 in SW 2.9 mph   82 % 0.00 in
12:08 43.2 °F 38.3 °F 30.44 in Calm     83 % 0.00 in
12:13 43.3 °F 38.5 °F 30.44 in Calm     83 % 0.00 in
12:18 43.3 °F 38.5 °F 30.43 in SW 2.3 mph   83 % 0.00 in
12:24 43.2 °F 38.0 °F 30.43 in Calm     82 % 0.00 in
12:29 43.2 °F 38.7 °F 30.43 in SW 2.3 mph   84 % 0.00 in
12:34 43.3 °F 38.5 °F 30.43 in South 3.5 mph   83 % 0.00 in
12:39 43.3 °F 38.5 °F 30.43 in SSE 4.6 mph   83 % 0.00 in
12:44 43.3 °F 38.8 °F 30.43 in Calm     84 % 0.00 in
12:49 43.3 °F 38.5 °F 30.42 in ESE 3.5 mph 3.5 mph 83 % 0.00 in
12:54 43.2 °F 38.7 °F 30.42 in Calm   1.4 mph 84 % 0.00 in
12:59 43.5 °F 39.3 °F 30.42 in SE 1.8 mph 1.8 mph 85 % 0.00 in
13:04 43.9 °F 39.1 °F 30.42 in Calm   1.4 mph 83 % 0.00 in
13:09 44.1 °F 38.9 °F 30.42 in ESE 2.9 mph   82 % 0.00 in
13:14 44.2 °F 39.4 °F 30.42 in Calm     83 % 0.00 in
13:20 44.2 °F 38.8 °F 30.41 in WSW 2.0 mph   81 % 0.00 in
13:25 44.2 °F 39.1 °F 30.41 in NW 1.4 mph   82 % 0.00 in
13:30 44.4 °F 39.6 °F 30.41 in West 1.2 mph   83 % 0.00 in
13:35 44.6 °F 38.8 °F 30.41 in Calm     80 % 0.00 in
13:40 44.8 °F 39.3 °F 30.41 in Calm     81 % 0.00 in
13:45 44.6 °F 38.5 °F 30.41 in Calm     79 % 0.00 in
13:50 44.4 °F 38.6 °F 30.41 in Calm     80 % 0.00 in
13:55 44.2 °F 38.8 °F 30.41 in WSW 7.4 mph   81 % 0.02 in
14:00 43.5 °F 39.0 °F 30.41 in Calm     84 % 0.02 in
14:05 43.0 °F 38.8 °F 30.41 in Calm     85 % 0.04 in
14:10 42.4 °F 38.5 °F 30.41 in West 1.2 mph   86 % 0.04 in
14:15 42.4 °F 38.8 °F 30.41 in SE 4.6 mph   87 % 0.04 in
14:20 42.4 °F 39.1 °F 30.41 in SE 1.2 mph   88 % 0.04 in
14:26 42.6 °F 39.3 °F 30.41 in Calm     88 % 0.04 in
14:31 42.4 °F 38.8 °F 30.41 in Calm     87 % 0.04 in
14:36 42.3 °F 39.2 °F 30.41 in Calm     89 % 0.04 in
14:41 42.3 °F 39.5 °F 30.41 in Calm     90 % 0.04 in
14:46 42.3 °F 39.5 °F 30.41 in Calm     90 % 0.04 in
14:51 42.4 °F 39.4 °F 30.41 in Calm     89 % 0.04 in
14:56 42.4 °F 38.8 °F 30.41 in Calm     87 % 0.02 in
15:01 42.4 °F 39.4 °F 30.41 in Calm     89 % 0.02 in
15:06 42.4 °F 39.1 °F 30.40 in Calm     88 % 0.00 in
15:11 42.4 °F 39.1 °F 30.40 in Calm     88 % 0.00 in
15:16 42.4 °F 39.7 °F 30.40 in Calm     90 % 0.00 in
15:21 42.3 °F 38.7 °F 30.40 in Calm     87 % 0.00 in
15:26 42.3 °F 39.0 °F 30.40 in Calm     88 % 0.00 in
15:31 42.3 °F 39.0 °F 30.40 in Calm     88 % 0.00 in
15:37 41.9 °F 38.3 °F 30.41 in ESE 2.4 mph   87 % 0.00 in
15:42 41.7 °F 38.4 °F 30.41 in Calm     88 % 0.00 in
15:47 41.5 °F 38.5 °F 30.41 in Calm     89 % 0.00 in
15:52 41.4 °F 38.6 °F 30.41 in Calm     90 % 0.00 in
15:57 41.4 °F 38.6 °F 30.41 in Calm     90 % 0.00 in
16:02 41.4 °F 38.6 °F 30.41 in Calm     90 % 0.00 in
16:07 41.4 °F 38.6 °F 30.41 in SE 1.4 mph   90 % 0.00 in
16:12 41.4 °F 38.4 °F 30.41 in Calm     89 % 0.00 in
16:17 41.4 °F 38.4 °F 30.42 in Calm     89 % 0.00 in
16:20 41.4 °F 38.1 °F 30.42 in Calm     88 % 0.00 in
16:25 41.2 °F 38.2 °F 30.42 in Calm     89 % 0.00 in
16:30 41.2 °F 38.5 °F 30.42 in Calm     90 % 0.00 in
16:35 41.0 °F 38.6 °F 30.42 in Calm     91 % 0.01 in
16:40 41.2 °F 38.5 °F 30.42 in SSE 2.3 mph   90 % 0.01 in
16:45 41.0 °F 38.6 °F 30.42 in Calm     91 % 0.01 in
16:50 40.8 °F 38.1 °F 30.41 in SSE 4.6 mph   90 % 0.01 in
16:55 40.6 °F 37.7 °F 30.41 in Calm     89 % 0.01 in
17:00 40.6 °F 37.4 °F 30.41 in South 2.3 mph 2.3 mph 88 % 0.01 in
17:05 40.5 °F 37.5 °F 30.40 in SSE 2.3 mph 2.3 mph 89 % 0.01 in
17:10 40.3 °F 37.3 °F 30.40 in Calm     89 % 0.01 in
17:15 40.1 °F 37.1 °F 30.40 in South 1.2 mph   89 % 0.01 in
17:20 39.9 °F 36.9 °F 30.40 in Calm     89 % 0.01 in
17:25 39.9 °F 37.2 °F 30.40 in Calm     90 % 0.01 in
17:30 39.7 °F 37.0 °F 30.40 in Calm     90 % 0.01 in
17:35 39.7 °F 37.0 °F 30.40 in Calm     90 % 0.00 in
17:40 39.6 °F 36.9 °F 30.40 in Calm     90 % 0.00 in
17:45 39.6 °F 36.6 °F 30.40 in SSE 3.5 mph   89 % 0.00 in
17:50 39.6 °F 36.9 °F 30.40 in Calm     90 % 0.00 in
17:55 39.6 °F 36.9 °F 30.40 in SE 2.3 mph   90 % 0.00 in
18:01 39.6 °F 36.9 °F 30.40 in Calm     90 % 0.00 in
18:06 39.4 °F 36.7 °F 30.40 in SSE 2.3 mph   90 % 0.00 in
18:11 39.2 °F 36.2 °F 30.40 in SE 2.3 mph   89 % 0.00 in
18:16 39.2 °F 36.5 °F 30.40 in Calm     90 % 0.00 in
18:21 39.0 °F 36.1 °F 30.41 in ESE 2.3 mph   89 % 0.00 in
18:26 39.0 °F 36.1 °F 30.41 in Calm     89 % 0.00 in
18:31 39.2 °F 36.2 °F 30.41 in SE 2.9 mph   89 % 0.00 in
18:36 39.0 °F 36.3 °F 30.42 in Calm     90 % 0.00 in
18:41 39.0 °F 36.3 °F 30.42 in Calm     90 % 0.00 in
18:46 39.0 °F 36.3 °F 30.42 in SE 1.2 mph   90 % 0.00 in
18:51 39.0 °F 36.3 °F 30.42 in Calm     90 % 0.00 in
18:56 38.8 °F 36.2 °F 30.42 in SE 2.3 mph   90 % 0.00 in
19:01 38.8 °F 36.2 °F 30.42 in SE 3.5 mph   90 % 0.00 in
19:06 39.0 °F 36.3 °F 30.42 in SE 2.3 mph   90 % 0.00 in
19:11 39.0 °F 36.3 °F 30.42 in Calm     90 % 0.00 in
19:17 39.0 °F 36.3 °F 30.41 in Calm     90 % 0.00 in
19:22 39.0 °F 36.1 °F 30.41 in SE 2.3 mph   89 % 0.00 in
19:27 39.0 °F 36.1 °F 30.41 in Calm     89 % 0.00 in
19:32 39.0 °F 36.1 °F 30.41 in Calm     89 % 0.00 in
19:37 39.0 °F 36.1 °F 30.41 in SE 1.2 mph   89 % 0.00 in
19:42 39.0 °F 36.1 °F 30.41 in SE 1.2 mph   89 % 0.00 in
19:47 38.8 °F 35.6 °F 30.40 in SSE 2.3 mph   88 % 0.00 in
19:52 38.8 °F 35.9 °F 30.40 in Calm     89 % 0.00 in
19:57 38.8 °F 35.9 °F 30.40 in Calm     89 % 0.00 in
20:02 38.8 °F 35.9 °F 30.40 in SE 1.4 mph   89 % 0.00 in
20:07 38.8 °F 35.6 °F 30.40 in NW 1.8 mph   88 % 0.00 in
20:12 39.0 °F 36.1 °F 30.40 in Calm     89 % 0.00 in
20:17 39.0 °F 36.1 °F 30.40 in Calm     89 % 0.00 in
20:22 39.0 °F 35.8 °F 30.40 in SW 3.5 mph   88 % 0.00 in
20:27 39.0 °F 35.8 °F 30.40 in Calm     88 % 0.00 in
20:33 39.0 °F 35.8 °F 30.40 in SE 2.3 mph   88 % 0.00 in
20:38 39.2 °F 36.2 °F 30.40 in WNW 2.3 mph   89 % 0.00 in
20:43 39.4 °F 36.1 °F 30.40 in Calm     88 % 0.00 in
20:48 39.4 °F 36.1 °F 30.41 in Calm     88 % 0.00 in
20:53 39.4 °F 36.1 °F 30.41 in East 2.3 mph   88 % 0.00 in
20:58 39.4 °F 35.8 °F 30.41 in Calm     87 % 0.00 in
21:03 39.4 °F 35.8 °F 30.41 in Calm     87 % 0.00 in
21:08 39.6 °F 36.0 °F 30.41 in NNE 3.5 mph   87 % 0.00 in
21:13 39.6 °F 36.0 °F 30.41 in West 1.8 mph   87 % 0.00 in
21:18 39.6 °F 36.3 °F 30.40 in Calm     88 % 0.00 in
21:23 39.6 °F 36.0 °F 30.40 in Calm     87 % 0.00 in
21:28 39.7 °F 36.2 °F 30.40 in West 2.3 mph   87 % 0.00 in
21:33 39.7 °F 36.2 °F 30.40 in WSW 4.6 mph   87 % 0.00 in
21:38 39.9 °F 36.4 °F 30.40 in West 4.0 mph 4.0 mph 87 % 0.00 in
21:44 39.9 °F 36.7 °F 30.40 in SE 3.5 mph 3.5 mph 88 % 0.00 in
21:49 39.9 °F 36.4 °F 30.40 in WSW 2.3 mph 2.3 mph 87 % 0.00 in
21:54 39.9 °F 36.4 °F 30.40 in SW 4.6 mph 4.6 mph 87 % 0.00 in
21:59 39.9 °F 36.7 °F 30.40 in Calm   1.4 mph 88 % 0.00 in
22:04 39.7 °F 36.8 °F 30.40 in SSW 3.5 mph 3.5 mph 89 % 0.00 in
22:09 39.7 °F 36.5 °F 30.40 in Calm   1.4 mph 88 % 0.00 in
22:14 39.7 °F 36.5 °F 30.40 in ESE 2.3 mph 2.3 mph 88 % 0.00 in
22:19 39.7 °F 36.8 °F 30.40 in Calm     89 % 0.00 in
22:24 39.7 °F 36.8 °F 30.40 in ESE 2.3 mph   89 % 0.00 in
22:29 39.7 °F 36.8 °F 30.40 in Calm     89 % 0.00 in
22:34 39.6 °F 36.6 °F 30.40 in Calm     89 % 0.00 in
22:39 39.6 °F 36.6 °F 30.40 in ESE 4.6 mph   89 % 0.00 in
22:44 39.6 °F 36.6 °F 30.40 in Calm     89 % 0.00 in
22:49 39.6 °F 36.6 °F 30.40 in Calm     89 % 0.00 in
22:54 39.6 °F 36.6 °F 30.40 in Calm     89 % 0.00 in
23:00 39.6 °F 36.6 °F 30.40 in Calm     89 % 0.00 in
23:05 39.6 °F 36.6 °F 30.40 in Calm     89 % 0.00 in
23:10 39.7 °F 36.8 °F 30.40 in Calm     89 % 0.00 in
23:15 39.6 °F 36.6 °F 30.40 in Calm     89 % 0.00 in
23:20 39.7 °F 36.8 °F 30.40 in ENE 3.1 mph   89 % 0.00 in
23:25 39.7 °F 36.8 °F 30.40 in Calm     89 % 0.00 in
23:30 39.6 °F 36.6 °F 30.40 in Calm     89 % 0.00 in
23:35 39.6 °F 36.9 °F 30.39 in SSE 2.4 mph   90 % 0.00 in
23:40 39.6 °F 36.9 °F 30.39 in Calm     90 % 0.00 in
23:45 39.6 °F 36.9 °F 30.39 in Calm     90 % 0.00 in
23:50 39.4 °F 36.7 °F 30.39 in Calm     90 % 0.00 in
23:55 39.4 °F 36.7 °F 30.39 in Calm     90 % 0.00 in
Compliments of Weather Underground - 2 mb